createdAt,value
2022-10-25T00:01:28.982Z,10.60
2022-10-25T00:03:56.685Z,12.70
2022-10-25T00:06:23.863Z,11.43
2022-10-25T00:08:51.402Z,10.82
2022-10-25T00:11:27.599Z,12.10
2022-10-25T00:13:56.651Z,11.70
2022-10-25T00:16:27.474Z,14.70
2022-10-25T00:18:54.786Z,12.50
2022-10-25T00:21:22.094Z,11.55
2022-10-25T00:23:50.205Z,12.52
2022-10-25T00:26:17.112Z,13.10
2022-10-25T00:28:44.461Z,11.90
2022-10-25T00:31:14.224Z,11.18
2022-10-25T00:33:42.230Z,12.50
2022-10-25T00:36:10.694Z,15.50
2022-10-25T00:38:38.271Z,12.40
2022-10-25T00:41:06.638Z,12.38
2022-10-25T00:43:40.018Z,11.88
2022-10-25T00:46:10.981Z,15.52
2022-10-25T00:48:37.918Z,12.75
2022-10-25T00:51:05.500Z,13.00
2022-10-25T00:53:37.305Z,11.38
2022-10-25T00:56:15.609Z,12.57
2022-10-25T00:58:46.816Z,13.52
2022-10-25T01:01:15.938Z,11.98
2022-10-25T01:03:47.273Z,12.38
2022-10-25T01:06:28.477Z,12.07
2022-10-25T01:08:56.323Z,11.05
2022-10-25T01:11:23.233Z,11.43
2022-10-25T01:13:51.209Z,13.35
2022-10-25T01:16:47.970Z,12.98
2022-10-25T01:19:52.113Z,12.20
2022-10-25T01:22:51.053Z,11.13
2022-10-25T01:25:20.818Z,13.20
2022-10-25T01:28:16.427Z,11.98
2022-10-25T01:31:19.873Z,14.00
2022-10-25T01:34:06.193Z,11.48
2022-10-25T01:36:45.818Z,12.77
2022-10-25T01:39:29.686Z,13.70
2022-10-25T01:42:35.481Z,12.63
2022-10-25T01:45:15.725Z,11.85
2022-10-25T01:47:59.296Z,11.50
2022-10-25T01:50:34.030Z,11.90
2022-10-25T01:53:00.720Z,11.03
2022-10-25T01:55:53.345Z,10.25
2022-10-25T01:59:03.665Z,12.60
2022-10-25T02:01:40.261Z,12.73
2022-10-25T02:04:37.805Z,12.70
2022-10-25T02:07:07.428Z,10.88
2022-10-25T02:09:48.538Z,11.70
2022-10-25T02:12:24.222Z,11.80
2022-10-25T02:15:16.556Z,12.20
2022-10-25T02:18:04.942Z,11.40
2022-10-25T02:20:35.727Z,11.32
2022-10-25T02:23:05.652Z,12.50
2022-10-25T02:25:37.503Z,11.40
2022-10-25T02:28:07.052Z,13.50
2022-10-25T02:30:36.626Z,11.20
2022-10-25T02:33:03.600Z,12.10
2022-10-25T02:35:30.437Z,10.90
2022-10-25T02:37:57.153Z,12.15
2022-10-25T02:40:24.642Z,11.27
2022-10-25T02:42:51.392Z,12.30
2022-10-25T02:45:18.261Z,10.80
2022-10-25T02:47:45.410Z,11.90
2022-10-25T02:50:12.737Z,12.57
2022-10-25T02:52:39.501Z,11.23
2022-10-25T02:55:06.771Z,12.75
2022-10-25T02:57:37.724Z,12.02
2022-10-25T03:00:08.757Z,12.27
2022-10-25T03:02:35.636Z,12.70
2022-10-25T03:05:02.757Z,10.68
2022-10-25T03:07:29.517Z,12.68
2022-10-25T03:09:56.816Z,11.70
2022-10-25T03:12:23.643Z,10.70
2022-10-25T03:14:50.395Z,11.90
2022-10-25T03:17:17.125Z,11.63
2022-10-25T03:19:43.871Z,11.98
2022-10-25T03:22:10.680Z,11.02
2022-10-25T03:24:37.424Z,11.85
2022-10-25T03:27:04.273Z,10.80
2022-10-25T03:29:31.056Z,11.80
2022-10-25T03:31:57.903Z,11.35
2022-10-25T03:34:24.609Z,11.90
2022-10-25T03:36:52.341Z,12.40
2022-10-25T03:39:19.069Z,12.32
2022-10-25T03:41:45.820Z,11.90
2022-10-25T03:44:12.520Z,10.32
2022-10-25T03:46:39.273Z,11.98
2022-10-25T03:49:06.133Z,10.20
2022-10-25T03:51:32.914Z,11.60
2022-10-25T03:53:59.757Z,10.70
2022-10-25T03:56:26.676Z,12.85
2022-10-25T03:58:53.543Z,13.07
2022-10-25T04:01:20.345Z,12.10
2022-10-25T04:03:47.239Z,10.20
2022-10-25T04:06:14.016Z,11.10
2022-10-25T04:08:40.777Z,11.45
2022-10-25T04:11:07.537Z,11.63
2022-10-25T04:13:34.294Z,11.25
2022-10-25T04:16:06.429Z,11.00
2022-10-25T04:18:33.176Z,10.75
2022-10-25T04:20:59.943Z,11.73
2022-10-25T04:23:26.772Z,11.35
2022-10-25T04:25:56.611Z,11.38
2022-10-25T04:28:24.549Z,12.20
2022-10-25T04:30:51.309Z,11.77
2022-10-25T04:33:18.071Z,10.48
2022-10-25T04:35:44.855Z,10.85
2022-10-25T04:38:11.660Z,10.17
2022-10-25T04:40:38.363Z,12.10
2022-10-25T04:43:05.117Z,11.48
2022-10-25T04:45:31.876Z,11.13
2022-10-25T04:47:59.677Z,10.30
2022-10-25T04:50:26.551Z,13.73
2022-10-25T04:52:53.269Z,13.02
2022-10-25T04:55:19.967Z,10.70
2022-10-25T04:57:46.684Z,11.35
2022-10-25T05:00:13.888Z,12.45
2022-10-25T05:02:40.831Z,11.65
2022-10-25T05:05:07.820Z,12.00
2022-10-25T05:07:34.561Z,11.15
2022-10-25T05:10:01.290Z,12.02
2022-10-25T05:12:28.107Z,10.93
2022-10-25T05:14:54.936Z,11.10
2022-10-25T05:17:21.661Z,12.80
2022-10-25T05:19:48.414Z,12.00
2022-10-25T05:22:15.289Z,12.95
2022-10-25T05:24:42.018Z,12.68
2022-10-25T05:27:08.861Z,10.30
2022-10-25T05:29:36.072Z,11.38
2022-10-25T05:32:03.081Z,11.05
2022-10-25T05:34:29.818Z,11.00
2022-10-25T05:36:57.058Z,13.45
2022-10-25T05:39:23.839Z,11.77
2022-10-25T05:41:51.593Z,11.40
2022-10-25T05:44:18.581Z,13.55
2022-10-25T05:46:45.503Z,11.88
2022-10-25T05:49:13.285Z,11.30
2022-10-25T05:51:40.031Z,11.70
2022-10-25T05:54:11.930Z,11.27
2022-10-25T05:56:39.942Z,11.45
2022-10-25T05:59:11.921Z,10.98
2022-10-25T06:01:41.043Z,13.60
2022-10-25T06:04:08.467Z,12.30
2022-10-25T06:06:36.337Z,13.20
2022-10-25T06:09:03.827Z,13.40
2022-10-25T06:11:30.954Z,14.93
2022-10-25T06:13:57.891Z,11.53
2022-10-25T06:16:24.716Z,10.40
2022-10-25T06:18:52.239Z,11.65
2022-10-25T06:21:29.730Z,12.50
2022-10-25T06:23:58.299Z,11.77
2022-10-25T06:26:27.637Z,11.63
2022-10-25T06:28:57.280Z,13.38
2022-10-25T06:31:25.185Z,13.07
2022-10-25T06:33:52.727Z,12.20
2022-10-25T06:36:22.344Z,12.95
2022-10-25T06:38:50.100Z,12.75
2022-10-25T06:41:22.584Z,13.60
2022-10-25T06:43:50.517Z,11.73
2022-10-25T06:46:33.677Z,13.38
2022-10-25T06:49:01.904Z,11.48
2022-10-25T06:51:29.397Z,10.60
2022-10-25T06:53:58.232Z,10.50
2022-10-25T06:56:26.318Z,11.23
2022-10-25T06:58:53.527Z,11.80
2022-10-25T07:01:22.115Z,11.10
2022-10-25T07:03:50.726Z,10.60
2022-10-25T07:06:26.165Z,12.33
2022-10-25T07:08:58.767Z,12.68
2022-10-25T07:11:27.052Z,11.00
2022-10-25T07:13:54.972Z,10.65
2022-10-25T07:16:22.148Z,12.25
2022-10-25T07:18:49.036Z,12.10
2022-10-25T07:21:20.126Z,11.48
2022-10-25T07:23:47.898Z,11.60
2022-10-25T07:26:20.232Z,12.60
2022-10-25T07:28:48.149Z,11.20
2022-10-25T07:31:17.872Z,11.23
2022-10-25T07:33:44.774Z,13.43
2022-10-25T07:36:12.099Z,13.73
2022-10-25T07:38:39.455Z,13.90
2022-10-25T07:41:06.985Z,10.98
2022-10-25T07:43:34.246Z,13.13
2022-10-25T07:46:01.123Z,12.63
2022-10-25T07:48:28.017Z,13.05
2022-10-25T07:50:54.739Z,12.80
2022-10-25T07:53:21.629Z,13.10
2022-10-25T07:55:52.426Z,12.17
2022-10-25T07:58:19.527Z,14.00
2022-10-25T08:00:46.616Z,11.63
2022-10-25T08:03:15.368Z,11.30
2022-10-25T08:05:44.852Z,11.60
2022-10-25T08:08:12.558Z,11.48
2022-10-25T08:10:40.893Z,11.82
2022-10-25T08:13:07.680Z,13.50
2022-10-25T08:15:36.344Z,13.20
2022-10-25T08:18:03.977Z,13.10
2022-10-25T08:20:49.636Z,12.85
2022-10-25T08:23:17.611Z,12.20
2022-10-25T08:25:44.433Z,11.70
2022-10-25T08:28:11.326Z,11.68
2022-10-25T08:30:38.044Z,11.23
2022-10-25T08:33:06.494Z,11.60
2022-10-25T08:35:36.144Z,11.30
2022-10-25T08:38:04.600Z,11.97
2022-10-25T08:40:47.898Z,11.75
2022-10-25T08:43:53.390Z,12.95
2022-10-25T08:46:49.648Z,11.65
2022-10-25T08:49:50.172Z,11.27
2022-10-25T08:52:26.836Z,14.00
2022-10-25T08:54:56.037Z,11.02
2022-10-25T08:57:32.926Z,10.98
2022-10-25T09:00:07.257Z,11.60
2022-10-25T09:02:49.052Z,10.20
2022-10-25T09:05:24.659Z,11.40
2022-10-25T09:08:03.335Z,12.13
2022-10-25T09:10:59.145Z,11.70
2022-10-25T09:13:43.281Z,12.65
2022-10-25T09:16:45.020Z,11.88
2022-10-25T09:19:34.817Z,11.40
2022-10-25T09:22:05.265Z,11.88
2022-10-25T09:24:56.871Z,11.87
2022-10-25T09:27:37.895Z,12.65
2022-10-25T09:30:09.013Z,12.00
2022-10-25T09:32:49.219Z,13.70
2022-10-25T09:35:23.035Z,12.88
2022-10-25T09:37:55.178Z,12.73
2022-10-25T09:40:25.464Z,12.27
2022-10-25T09:42:59.839Z,12.93
2022-10-25T09:45:42.089Z,11.47
2022-10-25T09:48:11.646Z,12.07
2022-10-25T09:50:49.100Z,10.68
2022-10-25T09:53:20.333Z,11.07
2022-10-25T09:55:55.045Z,12.13
2022-10-25T09:58:24.666Z,11.10
2022-10-25T10:00:53.700Z,10.63
2022-10-25T10:03:21.126Z,11.68
2022-10-25T10:05:52.426Z,11.13
2022-10-25T10:08:19.383Z,11.30
2022-10-25T10:10:48.263Z,13.05
2022-10-25T10:13:41.439Z,11.02
2022-10-25T10:16:35.537Z,10.98
2022-10-25T10:19:14.430Z,12.48
2022-10-25T10:21:43.994Z,11.73
2022-10-25T10:24:37.421Z,11.13
2022-10-25T10:27:22.285Z,11.50
2022-10-25T10:29:59.446Z,12.55
2022-10-25T10:32:31.763Z,12.70
2022-10-25T10:34:59.588Z,10.45
2022-10-25T10:37:27.860Z,10.95
2022-10-25T10:40:03.990Z,10.70
2022-10-25T10:42:37.666Z,10.65
2022-10-25T10:45:11.863Z,10.50
2022-10-25T10:47:50.605Z,11.02
2022-10-25T10:50:23.287Z,11.80
2022-10-25T10:53:00.000Z,11.13
2022-10-25T10:55:32.112Z,11.32
2022-10-25T10:58:14.808Z,11.75
2022-10-25T11:00:57.269Z,11.50
2022-10-25T11:03:53.979Z,11.85
2022-10-25T11:06:36.527Z,11.20
2022-10-25T11:09:12.592Z,11.05
2022-10-25T11:11:40.166Z,11.40
2022-10-25T11:14:15.877Z,11.50
2022-10-25T11:17:01.140Z,10.40
2022-10-25T11:20:01.864Z,11.80
2022-10-25T11:22:43.538Z,10.13
2022-10-25T11:25:13.336Z,12.07
2022-10-25T11:28:01.323Z,10.95
2022-10-25T11:30:47.114Z,11.10
2022-10-25T11:33:23.264Z,10.48
2022-10-25T11:36:09.581Z,10.55
2022-10-25T11:38:45.250Z,10.82
2022-10-25T11:41:24.015Z,11.30
2022-10-25T11:44:28.841Z,10.82
2022-10-25T11:47:04.487Z,10.43
2022-10-25T11:49:57.215Z,11.20
2022-10-25T11:52:27.131Z,12.10
2022-10-25T11:55:21.422Z,13.02
2022-10-25T11:58:08.019Z,10.20
2022-10-25T12:01:08.108Z,10.75
2022-10-25T12:04:18.429Z,10.32
2022-10-25T12:07:03.572Z,10.73
2022-10-25T12:09:51.551Z,9.90
2022-10-25T12:12:23.725Z,10.85
2022-10-25T12:14:56.054Z,10.20
2022-10-25T12:17:31.835Z,9.98
2022-10-25T12:20:02.250Z,11.80
2022-10-25T12:22:36.166Z,9.50
2022-10-25T12:25:08.179Z,9.80
2022-10-25T12:27:36.180Z,10.30
2022-10-25T12:30:10.629Z,10.10
2022-10-25T12:32:44.721Z,9.90
2022-10-25T12:35:26.985Z,9.70
2022-10-25T12:37:58.774Z,9.80
2022-10-25T12:40:28.586Z,9.40
2022-10-25T12:43:09.796Z,10.48
2022-10-25T12:45:58.259Z,9.90
2022-10-25T12:48:34.024Z,9.90
2022-10-25T12:51:15.237Z,10.32
2022-10-25T12:54:25.275Z,9.40
2022-10-25T12:57:10.648Z,9.68
2022-10-25T13:00:01.729Z,10.35
2022-10-25T13:02:47.437Z,9.80
2022-10-25T13:05:27.113Z,9.80
2022-10-25T13:08:04.764Z,9.90
2022-10-25T13:10:42.269Z,11.37
2022-10-25T13:13:35.569Z,9.90
2022-10-25T13:16:04.602Z,9.98
2022-10-25T13:18:45.569Z,9.90
2022-10-25T13:21:17.333Z,10.30
2022-10-25T13:23:50.072Z,9.70
2022-10-25T13:26:19.397Z,9.40
2022-10-25T13:28:51.735Z,9.60
2022-10-25T13:31:36.306Z,9.63
2022-10-25T13:34:14.985Z,10.00
2022-10-25T13:36:49.105Z,9.50
2022-10-25T13:39:30.144Z,9.80
2022-10-25T13:42:17.136Z,9.40
2022-10-25T13:44:56.722Z,9.50
2022-10-25T13:47:39.986Z,10.32
2022-10-25T13:50:26.937Z,9.60
2022-10-25T13:52:58.949Z,9.82
2022-10-25T13:55:37.921Z,9.55
2022-10-25T13:58:32.105Z,9.80
2022-10-25T14:01:17.371Z,9.50
2022-10-25T14:04:02.191Z,10.27
2022-10-25T14:06:34.844Z,10.75
2022-10-25T14:09:40.252Z,10.80
2022-10-25T14:12:16.752Z,9.60
2022-10-25T14:15:12.174Z,9.20
2022-10-25T14:17:43.876Z,9.35
2022-10-25T14:20:19.141Z,9.60
2022-10-25T14:23:22.692Z,9.30
2022-10-25T14:25:56.384Z,9.90
2022-10-25T14:28:29.289Z,9.40
2022-10-25T14:31:04.471Z,10.00
2022-10-25T14:33:45.739Z,9.77
2022-10-25T14:36:33.553Z,9.73
2022-10-25T14:39:03.063Z,9.65
2022-10-25T14:41:32.501Z,9.30
2022-10-25T14:43:59.436Z,9.57
2022-10-25T14:46:27.946Z,9.40
2022-10-25T14:48:57.576Z,10.27
2022-10-25T14:51:30.460Z,10.10
2022-10-25T14:54:06.485Z,9.65
2022-10-25T14:56:38.198Z,11.15
2022-10-25T14:59:07.804Z,10.00
2022-10-25T15:01:35.310Z,10.10
2022-10-25T15:04:02.437Z,10.20
2022-10-25T15:06:32.293Z,9.43
2022-10-25T15:09:30.029Z,10.30
2022-10-25T15:12:10.030Z,10.13
2022-10-25T15:14:37.479Z,11.10
2022-10-25T15:17:13.802Z,10.70
2022-10-25T15:20:13.890Z,10.30
2022-10-25T15:22:43.665Z,10.48
2022-10-25T15:25:23.896Z,13.03
2022-10-25T15:27:52.259Z,10.30
2022-10-25T15:30:37.536Z,11.50
2022-10-25T15:33:10.260Z,10.52
2022-10-25T15:35:58.068Z,10.30
2022-10-25T15:38:47.777Z,11.43
2022-10-25T15:41:17.874Z,9.90
2022-10-25T15:43:44.609Z,10.00
2022-10-25T15:46:29.945Z,11.32
2022-10-25T15:48:59.576Z,10.27
2022-10-25T15:51:28.870Z,11.35
2022-10-25T15:53:57.995Z,10.57
2022-10-25T15:56:24.821Z,11.63
2022-10-25T15:58:51.724Z,12.35
2022-10-25T16:01:18.797Z,11.82
2022-10-25T16:03:45.761Z,10.60
2022-10-25T16:06:14.230Z,10.60
2022-10-25T16:08:42.096Z,11.00
2022-10-25T16:11:18.661Z,11.40
2022-10-25T16:13:48.032Z,10.57
2022-10-25T16:16:41.573Z,12.35
2022-10-25T16:19:16.109Z,16.95
2022-10-25T16:21:43.657Z,14.38
2022-10-25T16:24:11.694Z,14.77
2022-10-25T16:26:47.625Z,13.87
2022-10-25T16:29:20.495Z,10.90
2022-10-25T16:31:47.524Z,11.52
2022-10-25T16:34:19.238Z,9.35
2022-10-25T16:36:47.566Z,10.27
2022-10-25T16:39:14.326Z,10.30
2022-10-25T16:41:45.834Z,10.80
2022-10-25T16:44:15.250Z,10.20
2022-10-25T16:46:42.189Z,10.20
2022-10-25T16:49:11.972Z,12.40
2022-10-25T16:51:40.335Z,10.60
2022-10-25T16:54:07.819Z,10.40
2022-10-25T16:56:35.701Z,11.30
2022-10-25T16:59:03.049Z,10.38
2022-10-25T17:01:33.589Z,10.95
2022-10-25T17:04:01.476Z,14.50
2022-10-25T17:06:40.708Z,10.30
2022-10-25T17:09:08.482Z,11.38
2022-10-25T17:11:36.166Z,11.10
2022-10-25T17:14:03.545Z,12.07
2022-10-25T17:16:30.295Z,11.93
2022-10-25T17:18:57.385Z,12.30
2022-10-25T17:21:24.169Z,9.80
2022-10-25T17:23:50.964Z,10.00
2022-10-25T17:26:17.711Z,10.50
2022-10-25T17:28:44.792Z,10.38
2022-10-25T17:31:13.361Z,10.10
2022-10-25T17:33:40.927Z,9.60
2022-10-25T17:36:17.479Z,9.50
2022-10-25T17:38:45.251Z,10.30
2022-10-25T17:41:13.168Z,10.10
2022-10-25T17:43:41.184Z,10.02
2022-10-25T17:46:13.006Z,11.55
2022-10-25T17:48:39.965Z,9.50
2022-10-25T17:51:10.317Z,10.68
2022-10-25T17:53:37.596Z,10.50
2022-10-25T17:56:16.146Z,10.43
2022-10-25T17:58:44.827Z,11.00
2022-10-25T18:01:13.630Z,9.73
2022-10-25T18:03:40.780Z,9.50
2022-10-25T18:06:10.059Z,11.90
2022-10-25T18:08:37.689Z,10.00
2022-10-25T18:11:14.617Z,10.00
2022-10-25T18:13:41.905Z,10.50
2022-10-25T18:16:10.261Z,9.80
2022-10-25T18:18:38.041Z,10.68
2022-10-25T18:21:13.496Z,10.00
2022-10-25T18:23:41.401Z,11.43
2022-10-25T18:26:10.970Z,10.00
2022-10-25T18:28:38.123Z,10.07
2022-10-25T18:31:09.122Z,10.20
2022-10-25T18:33:37.942Z,10.10
2022-10-25T18:36:17.793Z,16.52
2022-10-25T18:38:45.657Z,18.63
2022-10-25T18:41:37.728Z,13.60
2022-10-25T18:44:04.680Z,11.05
2022-10-25T18:46:32.526Z,10.85
2022-10-25T18:48:59.575Z,11.40
2022-10-25T18:51:31.827Z,11.82
2022-10-25T18:54:02.838Z,10.48
2022-10-25T18:56:30.808Z,13.38
2022-10-25T18:58:59.180Z,13.95
2022-10-25T19:01:32.560Z,15.60
2022-10-25T19:04:01.957Z,12.82
2022-10-25T19:06:29.632Z,12.60
2022-10-25T19:08:56.742Z,12.32
2022-10-25T19:11:23.537Z,12.40
2022-10-25T19:13:54.744Z,13.15
2022-10-25T19:16:22.529Z,13.15
2022-10-25T19:18:49.788Z,13.88
2022-10-25T19:21:18.373Z,12.65
2022-10-25T19:23:46.569Z,12.45
2022-10-25T19:26:19.531Z,11.98
2022-10-25T19:28:47.493Z,15.02
2022-10-25T19:31:16.657Z,14.32
2022-10-25T19:33:48.220Z,13.60
2022-10-25T19:36:15.838Z,12.70
2022-10-25T19:38:44.959Z,12.40
2022-10-25T19:41:15.721Z,11.73
2022-10-25T19:43:42.800Z,11.60
2022-10-25T19:46:10.734Z,18.05
2022-10-25T19:48:37.531Z,16.73
2022-10-25T19:51:06.169Z,14.32
2022-10-25T19:53:33.289Z,15.07
2022-10-25T19:56:03.010Z,14.80
2022-10-25T19:58:29.823Z,15.13
2022-10-25T20:01:06.997Z,13.95
2022-10-25T20:03:34.594Z,13.40
2022-10-25T20:06:05.010Z,15.25
2022-10-25T20:08:33.725Z,13.17
2022-10-25T20:11:01.663Z,13.68
2022-10-25T20:13:28.528Z,13.95
2022-10-25T20:15:55.804Z,15.02
2022-10-25T20:18:30.400Z,13.55
2022-10-25T20:21:00.041Z,17.80
2022-10-25T20:23:27.060Z,14.02
2022-10-25T20:25:53.968Z,16.90
2022-10-25T20:28:20.912Z,14.93
2022-10-25T20:30:47.704Z,19.07
2022-10-25T20:33:15.313Z,19.33
2022-10-25T20:35:44.655Z,17.40
2022-10-25T20:38:14.195Z,18.42
2022-10-25T20:40:41.091Z,18.38
2022-10-25T20:43:07.860Z,18.65
2022-10-25T20:45:34.852Z,15.73
2022-10-25T20:48:01.732Z,14.27
2022-10-25T20:50:29.677Z,17.17
2022-10-25T20:53:09.760Z,15.38
2022-10-25T20:55:37.708Z,17.85
2022-10-25T20:58:04.825Z,14.53
2022-10-25T21:00:32.355Z,12.65
2022-10-25T21:03:00.103Z,12.73
2022-10-25T21:05:26.847Z,19.63
2022-10-25T21:07:53.669Z,17.73
2022-10-25T21:10:20.373Z,18.63
2022-10-25T21:12:47.291Z,16.23
2022-10-25T21:15:14.084Z,14.85
2022-10-25T21:17:40.906Z,14.10
2022-10-25T21:20:08.269Z,13.32
2022-10-25T21:22:35.064Z,14.65
2022-10-25T21:25:01.824Z,12.82
2022-10-25T21:27:28.536Z,11.73
2022-10-25T21:29:55.235Z,12.10
2022-10-25T21:32:21.981Z,11.82
2022-10-25T21:34:48.669Z,15.18
2022-10-25T21:37:15.589Z,11.20
2022-10-25T21:39:43.441Z,12.82
2022-10-25T21:42:10.346Z,13.13
2022-10-25T21:44:37.045Z,11.80
2022-10-25T21:47:03.788Z,12.35
2022-10-25T21:49:30.700Z,11.10
2022-10-25T21:51:57.509Z,13.60
2022-10-25T21:54:25.007Z,14.65
2022-10-25T21:56:52.799Z,11.82
2022-10-25T21:59:20.441Z,13.07
2022-10-25T22:01:47.584Z,12.50
2022-10-25T22:04:15.736Z,13.98
2022-10-25T22:06:42.517Z,13.23
2022-10-25T22:09:09.233Z,14.20
2022-10-25T22:11:37.980Z,12.68
2022-10-25T22:14:08.137Z,12.90
2022-10-25T22:16:36.948Z,12.07
2022-10-25T22:19:13.139Z,12.40
2022-10-25T22:21:41.012Z,13.27
2022-10-25T22:24:09.295Z,12.13
2022-10-25T22:26:37.841Z,12.70
2022-10-25T22:29:04.748Z,13.18
2022-10-25T22:31:32.541Z,14.50
2022-10-25T22:34:01.704Z,13.00
2022-10-25T22:36:31.554Z,16.23
2022-10-25T22:38:59.125Z,15.40
2022-10-25T22:41:27.764Z,15.27
2022-10-25T22:43:55.125Z,17.05
2022-10-25T22:46:25.283Z,14.07
2022-10-25T22:48:54.259Z,13.68
2022-10-25T22:51:22.241Z,12.30
2022-10-25T22:53:49.012Z,12.27
2022-10-25T22:56:21.589Z,13.90
2022-10-25T22:58:56.416Z,14.47
2022-10-25T23:01:28.789Z,16.45
2022-10-25T23:03:57.025Z,12.25
2022-10-25T23:06:29.666Z,12.77
2022-10-25T23:09:01.624Z,11.57
2022-10-25T23:11:33.440Z,12.07
2022-10-25T23:14:01.338Z,14.00
2022-10-25T23:16:29.177Z,13.60
2022-10-25T23:18:56.362Z,11.40
2022-10-25T23:21:29.956Z,13.00
2022-10-25T23:23:58.134Z,12.75
2022-10-25T23:26:28.197Z,12.80
2022-10-25T23:28:56.077Z,11.80
2022-10-25T23:31:24.000Z,13.80
2022-10-25T23:33:53.740Z,16.15
2022-10-25T23:36:22.740Z,13.55
2022-10-25T23:38:50.769Z,14.93
2022-10-25T23:41:18.897Z,13.07
2022-10-25T23:43:45.973Z,13.93
2022-10-25T23:46:13.016Z,12.50
2022-10-25T23:48:40.374Z,13.30
2022-10-25T23:51:13.236Z,12.93
2022-10-25T23:53:40.240Z,12.57
2022-10-25T23:56:09.056Z,13.20
2022-10-25T23:58:35.864Z,13.15
